createdAt,value
2023-10-22T00:04:49.624Z,9.31
2023-10-22T00:09:56.603Z,9.37
2023-10-22T00:15:02.248Z,9.37
2023-10-22T00:20:10.698Z,9.41
2023-10-22T00:25:16.431Z,9.38
2023-10-22T00:30:22.011Z,9.36
2023-10-22T00:35:27.881Z,9.36
2023-10-22T00:40:33.372Z,9.44
2023-10-22T00:45:40.373Z,9.50
2023-10-22T00:50:46.678Z,9.50
2023-10-22T00:55:52.545Z,9.45
2023-10-22T01:00:58.555Z,9.49
2023-10-22T01:06:06.857Z,9.51
2023-10-22T01:11:13.448Z,9.53
2023-10-22T01:16:20.031Z,9.53
2023-10-22T01:21:30.461Z,9.48
2023-10-22T01:26:42.290Z,9.51
2023-10-22T01:31:48.198Z,9.51
2023-10-22T01:36:54.006Z,9.52
2023-10-22T01:41:59.717Z,9.54
2023-10-22T01:47:05.910Z,9.51
2023-10-22T01:52:12.205Z,9.48
2023-10-22T01:57:17.949Z,9.50
2023-10-22T02:02:23.670Z,9.56
2023-10-22T02:07:30.075Z,9.65
2023-10-22T02:12:35.943Z,9.75
2023-10-22T02:17:42.905Z,9.77
2023-10-22T02:22:49.909Z,9.78
2023-10-22T02:27:55.600Z,9.82
2023-10-22T02:33:01.420Z,9.93
2023-10-22T02:38:07.066Z,10.01
2023-10-22T02:43:13.287Z,10.05
2023-10-22T02:48:19.205Z,10.08
2023-10-22T02:53:24.930Z,10.07
2023-10-22T02:58:30.597Z,10.09
2023-10-22T03:03:42.495Z,10.14
2023-10-22T03:08:48.839Z,10.18
2023-10-22T03:13:54.580Z,10.23
2023-10-22T03:19:00.147Z,10.29
2023-10-22T03:24:09.554Z,10.29
2023-10-22T03:29:15.427Z,10.29
2023-10-22T03:34:21.301Z,10.30
2023-10-22T03:39:27.278Z,10.34
2023-10-22T03:44:33.072Z,10.31
2023-10-22T03:49:39.350Z,10.32
2023-10-22T03:54:44.964Z,10.31
2023-10-22T03:59:50.539Z,10.32
2023-10-22T04:04:56.177Z,10.36
2023-10-22T04:10:03.894Z,10.32
2023-10-22T04:15:11.053Z,10.26
2023-10-22T04:20:17.472Z,10.26
2023-10-22T04:25:23.054Z,10.25
2023-10-22T04:30:28.718Z,10.27
2023-10-22T04:35:37.155Z,10.30
2023-10-22T04:40:42.942Z,10.35
2023-10-22T04:45:51.627Z,10.32
2023-10-22T04:50:59.219Z,10.28
2023-10-22T04:56:05.766Z,10.26
2023-10-22T05:01:13.471Z,10.27
2023-10-22T05:06:19.188Z,10.31
2023-10-22T05:11:27.765Z,10.36
2023-10-22T05:16:34.629Z,10.42
2023-10-22T05:21:40.966Z,10.51
2023-10-22T05:26:46.593Z,10.52
2023-10-22T05:31:52.594Z,10.48
2023-10-22T05:36:58.378Z,10.48
2023-10-22T05:42:04.934Z,10.50
2023-10-22T05:47:10.829Z,10.52
2023-10-22T05:52:16.600Z,10.51
2023-10-22T05:57:24.325Z,10.48
2023-10-22T06:02:30.161Z,10.45
2023-10-22T06:07:35.898Z,10.46
2023-10-22T06:12:41.626Z,10.49
2023-10-22T06:17:47.290Z,10.60
2023-10-22T06:22:52.912Z,10.70
2023-10-22T06:27:58.712Z,10.70
2023-10-22T06:33:05.609Z,10.65
2023-10-22T06:38:11.600Z,10.65
2023-10-22T06:43:17.247Z,10.67
2023-10-22T06:48:23.129Z,10.69
2023-10-22T06:53:29.543Z,10.75
2023-10-22T06:58:39.057Z,10.77
2023-10-22T07:03:47.765Z,10.82
2023-10-22T07:08:53.605Z,10.92
2023-10-22T07:13:59.332Z,10.89
2023-10-22T07:19:05.407Z,10.82
2023-10-22T07:24:11.620Z,10.75
2023-10-22T07:29:18.447Z,10.72
2023-10-22T07:34:24.105Z,10.79
2023-10-22T07:39:29.809Z,10.84
2023-10-22T07:44:35.856Z,10.85
2023-10-22T07:49:43.629Z,10.84
2023-10-22T07:54:53.453Z,10.81
2023-10-22T07:59:59.188Z,10.79
2023-10-22T08:05:05.386Z,10.79
2023-10-22T08:10:11.761Z,10.81
2023-10-22T08:15:18.026Z,10.88
2023-10-22T08:20:23.802Z,10.94
2023-10-22T08:25:29.530Z,11.00
2023-10-22T08:30:36.274Z,11.03
2023-10-22T08:35:43.373Z,11.03
2023-10-22T08:40:53.206Z,11.08
2023-10-22T08:45:59.962Z,11.16
2023-10-22T08:51:06.553Z,11.22
2023-10-22T08:56:12.892Z,11.28
2023-10-22T09:01:19.548Z,11.33
2023-10-22T09:06:25.395Z,11.40
2023-10-22T09:11:31.384Z,11.44
2023-10-22T09:16:38.819Z,11.51
2023-10-22T09:21:45.950Z,11.55
2023-10-22T09:26:53.964Z,11.55
2023-10-22T09:32:00.972Z,11.62
2023-10-22T09:37:06.755Z,11.67
2023-10-22T09:42:17.404Z,11.77
2023-10-22T09:47:24.617Z,11.86
2023-10-22T09:52:37.125Z,11.89
2023-10-22T09:57:44.736Z,11.96
2023-10-22T10:02:50.617Z,11.99
2023-10-22T10:07:56.848Z,12.03
2023-10-22T10:13:03.632Z,12.01
2023-10-22T10:18:11.315Z,11.98
2023-10-22T10:23:20.777Z,11.93
2023-10-22T10:28:46.655Z,11.94
2023-10-22T10:34:05.184Z,11.98
2023-10-22T10:39:38.926Z,12.03
2023-10-22T10:45:08.838Z,12.02
2023-10-22T10:50:20.150Z,12.10
2023-10-22T10:55:35.508Z,12.15
2023-10-22T11:00:50.804Z,12.24
2023-10-22T11:06:03.750Z,12.27
2023-10-22T11:11:16.946Z,12.24
2023-10-22T11:16:22.638Z,12.28
2023-10-22T11:21:30.239Z,12.35
2023-10-22T11:26:36.350Z,12.45
2023-10-22T11:31:52.792Z,12.51
2023-10-22T11:37:01.730Z,12.60
2023-10-22T11:42:08.961Z,12.59
2023-10-22T11:47:28.547Z,12.61
2023-10-22T11:52:52.485Z,12.59
2023-10-22T11:57:58.666Z,12.65
2023-10-22T12:03:04.531Z,12.67
2023-10-22T12:08:10.382Z,12.69
2023-10-22T12:13:16.209Z,12.68
2023-10-22T12:18:22.049Z,12.65
2023-10-22T12:23:38.140Z,12.67
2023-10-22T12:28:52.985Z,12.66
2023-10-22T12:33:58.618Z,12.54
2023-10-22T12:39:04.765Z,12.41
2023-10-22T12:44:10.437Z,12.32
2023-10-22T12:49:16.180Z,12.21
2023-10-22T12:54:21.866Z,12.09
2023-10-22T12:59:31.481Z,12.06
2023-10-22T13:04:37.726Z,12.02
2023-10-22T13:09:43.753Z,11.98
2023-10-22T13:14:51.120Z,11.94
2023-10-22T13:19:57.404Z,11.92
2023-10-22T13:25:04.015Z,11.91
2023-10-22T13:30:13.507Z,11.94
2023-10-22T13:35:19.334Z,11.96
2023-10-22T13:40:25.099Z,11.91
2023-10-22T13:45:30.832Z,11.95
2023-10-22T13:50:38.277Z,11.97
2023-10-22T13:55:44.024Z,12.01
2023-10-22T14:00:50.919Z,11.99
2023-10-22T14:05:56.803Z,11.94
2023-10-22T14:11:02.497Z,11.91
2023-10-22T14:16:08.669Z,11.93
2023-10-22T14:21:16.259Z,11.91
2023-10-22T14:26:25.632Z,11.88
2023-10-22T14:31:31.355Z,11.80
2023-10-22T14:36:37.696Z,11.75
2023-10-22T14:41:43.374Z,11.73
2023-10-22T14:46:49.010Z,11.71
2023-10-22T14:51:54.729Z,11.66
2023-10-22T14:57:00.684Z,11.60
2023-10-22T15:02:06.824Z,11.59
2023-10-22T15:07:13.397Z,11.60
2023-10-22T15:12:20.209Z,11.62
2023-10-22T15:17:27.664Z,11.58
2023-10-22T15:22:33.186Z,11.56
2023-10-22T15:27:39.390Z,11.59
2023-10-22T15:32:45.006Z,11.64
2023-10-22T15:37:52.299Z,11.69
2023-10-22T15:42:59.239Z,11.68
2023-10-22T15:48:05.960Z,11.66
2023-10-22T15:53:12.218Z,11.68
2023-10-22T15:58:17.937Z,11.72
2023-10-22T16:03:23.826Z,11.75
2023-10-22T16:08:29.810Z,11.73
2023-10-22T16:13:35.489Z,11.73
2023-10-22T16:18:41.311Z,11.73
2023-10-22T16:23:47.020Z,11.75
2023-10-22T16:28:58.665Z,11.75
2023-10-22T16:34:05.046Z,11.76
2023-10-22T16:39:10.957Z,11.79
2023-10-22T16:44:16.640Z,11.84
2023-10-22T16:49:22.743Z,11.87
2023-10-22T16:54:29.127Z,11.86
2023-10-22T16:59:34.747Z,11.84
2023-10-22T17:04:40.482Z,11.85
2023-10-22T17:10:01.766Z,11.85
2023-10-22T17:15:26.455Z,11.79
2023-10-22T17:20:32.346Z,11.81
2023-10-22T17:25:45.232Z,11.84
2023-10-22T17:30:51.170Z,11.87
2023-10-22T17:35:58.317Z,11.86
2023-10-22T17:41:04.006Z,11.85
2023-10-22T17:46:13.328Z,11.85
2023-10-22T17:51:20.030Z,11.89
2023-10-22T17:56:26.163Z,11.88
2023-10-22T18:01:34.399Z,11.88
2023-10-22T18:06:40.443Z,11.92
2023-10-22T18:11:46.214Z,11.94
2023-10-22T18:16:52.216Z,12.00
2023-10-22T18:21:58.010Z,12.03
2023-10-22T18:27:04.161Z,12.02
2023-10-22T18:32:09.947Z,11.99
2023-10-22T18:37:16.026Z,11.97
2023-10-22T18:42:21.724Z,11.97
2023-10-22T18:47:27.369Z,11.97
2023-10-22T18:52:33.261Z,11.96
2023-10-22T18:57:39.358Z,11.93
2023-10-22T19:02:45.023Z,11.93
2023-10-22T19:07:50.921Z,11.96
2023-10-22T19:12:56.736Z,11.99
2023-10-22T19:18:03.222Z,12.05
2023-10-22T19:23:11.412Z,12.07
2023-10-22T19:28:19.660Z,12.07
2023-10-22T19:33:31.642Z,12.08
2023-10-22T19:38:37.714Z,12.09
2023-10-22T19:43:43.349Z,12.11
2023-10-22T19:48:49.146Z,12.12
2023-10-22T19:53:55.329Z,12.12
2023-10-22T19:59:01.160Z,12.14
2023-10-22T20:04:08.279Z,12.16
2023-10-22T20:09:14.638Z,12.18
2023-10-22T20:14:20.417Z,12.19
2023-10-22T20:19:26.031Z,12.17
2023-10-22T20:24:34.305Z,12.16
2023-10-22T20:29:40.940Z,12.20
2023-10-22T20:34:46.578Z,12.24
2023-10-22T20:40:11.341Z,12.28
2023-10-22T20:45:25.969Z,12.30
2023-10-22T20:50:32.968Z,12.31
2023-10-22T20:55:41.160Z,12.32
2023-10-22T21:00:47.532Z,12.35
2023-10-22T21:06:02.208Z,12.37
2023-10-22T21:11:13.066Z,12.33
2023-10-22T21:16:38.623Z,12.33
2023-10-22T21:28:26.847Z,12.34
2023-10-22T21:33:32.994Z,12.34
2023-10-22T21:38:40.451Z,12.32
2023-10-22T21:43:46.308Z,12.30
2023-10-22T21:48:52.787Z,12.33
2023-10-22T21:53:58.786Z,12.32
2023-10-22T21:59:04.674Z,12.38
2023-10-22T22:04:11.082Z,12.36
2023-10-22T22:09:18.308Z,12.35
2023-10-22T22:14:24.104Z,12.36
2023-10-22T22:19:32.644Z,12.38
2023-10-22T22:24:42.920Z,12.42
2023-10-22T22:29:48.821Z,12.40
2023-10-22T22:34:57.885Z,12.36
2023-10-22T22:40:04.953Z,12.36
2023-10-22T22:45:13.531Z,12.35
2023-10-22T22:50:19.545Z,12.32
2023-10-22T22:55:26.197Z,12.27
2023-10-22T23:00:32.133Z,12.26
2023-10-22T23:05:38.614Z,12.25
2023-10-22T23:10:44.745Z,12.24
2023-10-22T23:16:00.209Z,12.25
2023-10-22T23:21:18.614Z,12.21
2023-10-22T23:26:32.408Z,12.21
2023-10-22T23:31:44.131Z,12.20
2023-10-22T23:37:01.424Z,12.19
2023-10-22T23:42:10.355Z,12.14
2023-10-22T23:47:16.500Z,12.13
2023-10-22T23:52:22.452Z,12.10
2023-10-22T23:57:41.324Z,12.08
